Time;durP1;ratioP1;P1;durP2;ratioP2;P2;SDS_P1;SDS_P2;PMS_P1;PMS_P2;Temp;Humidity;BMP_temperature;BMP_pressure;BME280_temperature;BME280_humidity;BME280_pressure;Samples;Min_cycle;Max_cycle;Signal;HPM_P1;HPM_P2
2021/08/25 00:00:01;;;;;;;6.45;3.88;;;538.30;1868.80;;;;;;5095609;28;20480;-74
2021/08/25 00:02:27;;;;;;;4.75;4.20;;;538.30;1868.80;;;;;;5094242;28;20124;-73
2021/08/25 00:04:54;;;;;;;7.43;4.22;;;538.30;1868.80;;;;;;5094208;28;20024;-73
2021/08/25 00:07:21;;;;;;;4.25;3.85;;;538.30;1868.80;;;;;;5095513;28;20145;-73
2021/08/25 00:09:47;;;;;;;4.20;3.80;;;538.40;1868.80;;;;;;5094098;28;20031;-74
2021/08/25 00:12:13;;;;;;;6.28;4.30;;;538.30;1894.40;;;;;;5095311;28;20040;-73
2021/08/25 00:14:41;;;;;;;4.63;4.00;;;538.30;1894.40;;;;;;5095073;28;20068;-74
2021/08/25 00:17:08;;;;;;;7.10;4.20;;;538.30;1894.40;;;;;;5095251;28;20028;-73
2021/08/25 00:19:34;;;;;;;5.22;4.45;;;538.30;1894.40;;;;;;5095223;28;20038;-74
2021/08/25 00:22:00;;;;;;;4.90;4.43;;;538.30;1894.40;;;;;;5094739;28;20020;-74
2021/08/25 00:24:27;;;;;;;4.93;4.20;;;538.30;1894.40;;;;;;5095123;28;20016;-73
2021/08/25 00:26:53;;;;;;;6.82;4.30;;;538.30;1920.00;;;;;;5095045;28;20366;-73
2021/08/25 00:29:19;;;;;;;5.38;4.55;;;538.30;1920.00;;;;;;5095000;28;20468;-73
2021/08/25 00:31:45;;;;;;;4.43;4.03;;;538.20;1920.00;;;;;;5095205;28;20031;-74
2021/08/25 00:34:11;;;;;;;4.75;4.35;;;538.10;1920.00;;;;;;5094905;28;20020;-74
2021/08/25 00:36:37;;;;;;;7.90;4.30;;;538.10;1945.60;;;;;;5094858;28;20054;-74
2021/08/25 00:39:04;;;;;;;6.45;4.45;;;538.30;1945.60;;;;;;5094833;28;20358;-75
2021/08/25 00:41:30;;;;;;;4.57;3.95;;;538.10;1945.60;;;;;;5094721;28;20031;-74
2021/08/25 00:43:57;;;;;;;8.55;3.92;;;538.10;1945.60;;;;;;5093490;28;20427;-74
2021/08/25 00:46:23;;;;;;;5.80;3.60;;;538.10;1945.60;;;;;;5094721;28;20020;-74
2021/08/25 00:48:49;;;;;;;4.40;3.92;;;538.10;1945.60;;;;;;5094610;28;20020;-73
2021/08/25 00:51:21;;;;;;;6.57;4.10;;;538.10;1945.60;;;;;;5094715;28;20032;-74
2021/08/25 00:53:47;;;;;;;4.90;3.63;;;538.10;1945.60;;;;;;5094604;28;20028;-73
2021/08/25 00:56:13;;;;;;;4.82;4.05;;;538.10;1945.60;;;;;;5094833;28;20028;-74
2021/08/25 00:58:42;;;;;;;5.07;3.70;;;538.00;1945.60;;;;;;5094431;28;20024;-73
2021/08/25 01:01:33;;;;;;;6.68;4.70;;;538.40;1945.60;;;;;;5094457;28;20423;-74
2021/08/25 01:04:06;;;;;;;4.03;3.42;;;538.10;1945.60;;;;;;5062893;28;20029;-73
2021/08/25 01:06:34;;;;;;;4.85;3.25;;;538.10;1945.60;;;;;;5094591;28;20093;-74
2021/08/25 01:09:04;;;;;;;3.80;2.90;;;537.90;1945.60;;;;;;5093404;28;20069;-73
2021/08/25 01:11:43;;;;;;;3.47;2.47;;;538.00;1945.60;;;;;;5094227;28;20032;-75
2021/08/25 01:14:09;;;;;;;2.40;1.80;;;537.90;1920.00;;;;;;5093885;28;20052;-73
2021/08/25 01:16:39;;;;;;;1.60;1.50;;;537.80;1920.00;;;;;;5092900;28;20047;-73
2021/08/25 01:19:09;;;;;;;2.20;1.70;;;537.70;1920.00;;;;;;5094080;28;20070;-74
2021/08/25 01:21:35;;;;;;;4.30;1.58;;;537.70;1920.00;;;;;;5094094;28;20074;-74
2021/08/25 01:24:02;;;;;;;2.38;1.63;;;537.60;1894.40;;;;;;5092680;28;20159;-74
2021/08/25 01:26:31;;;;;;;2.38;1.40;;;537.60;1894.40;;;;;;5094010;28;20415;-73
2021/08/25 01:28:58;;;;;;;6.85;1.40;;;537.60;1894.40;;;;;;5093964;28;20526;-74
2021/08/25 01:31:27;;;;;;;3.15;1.38;;;537.70;1894.40;;;;;;5092599;28;20130;-73
2021/08/25 01:34:04;;;;;;;1.75;1.50;;;512.90;1868.80;;;;;;5093755;28;20023;-74
2021/08/25 01:36:30;;;;;;;3.70;1.70;;;512.90;1894.40;;;;;;5093825;28;20066;-72
2021/08/25 01:38:57;;;;;;;3.97;1.70;;;512.80;1894.40;;;;;;5093816;28;20499;-73
2021/08/25 01:41:26;;;;;;;2.30;1.20;;;512.80;1894.40;;;;;;5093855;28;20050;-74
2021/08/25 01:44:00;;;;;;;1.80;1.25;;;512.80;1868.80;;;;;;5093592;28;20461;-73
2021/08/25 01:46:35;;;;;;;0.93;0.70;;;512.70;1843.20;;;;;;5092254;28;20031;-73
2021/08/25 01:49:05;;;;;;;1.55;0.70;;;512.80;1843.20;;;;;;5094118;28;20024;-73
2021/08/25 01:51:31;;;;;;;1.52;0.65;;;512.70;1817.60;;;;;;5092147;28;20073;-73
2021/08/25 01:53:58;;;;;;;1.20;0.77;;;512.80;1792.00;;;;;;5093808;28;20082;-74
2021/08/25 01:56:25;;;;;;;5.50;0.80;;;512.80;1792.00;;;;;;5092251;28;20055;-72
2021/08/25 01:58:53;;;;;;;2.05;0.70;;;512.70;1817.60;;;;;;5092371;28;20028;-73
2021/08/25 02:01:18;;;;;;;2.08;1.25;;;512.70;1817.60;;;;;;5092313;28;20031;-73
2021/08/25 02:03:44;;;;;;;4.03;0.85;;;512.70;1792.00;;;;;;5093589;28;20020;-73
2021/08/25 02:06:10;;;;;;;2.08;1.02;;;512.70;1792.00;;;;;;5092221;28;20027;-73
2021/08/25 02:08:36;;;;;;;1.00;0.75;;;512.60;1817.60;;;;;;5093515;28;20101;-73
2021/08/25 02:11:02;;;;;;;2.10;0.63;;;512.50;1817.60;;;;;;5093670;28;20358;-73
2021/08/25 02:13:28;;;;;;;1.23;0.70;;;512.50;1817.60;;;;;;5093415;28;20457;-73
2021/08/25 02:15:54;;;;;;;1.58;0.60;;;512.50;1817.60;;;;;;5093245;28;20130;-73
2021/08/25 02:18:20;;;;;;;0.65;0.50;;;512.40;1817.60;;;;;;5092155;28;20496;-73
2021/08/25 02:20:46;;;;;;;0.85;0.50;;;512.30;1817.60;;;;;;5093385;28;20381;-74
2021/08/25 02:23:12;;;;;;;1.63;0.65;;;512.30;1817.60;;;;;;5093356;28;20028;-73
2021/08/25 02:25:38;;;;;;;3.70;0.50;;;512.40;1817.60;;;;;;5093280;28;20483;-73
2021/08/25 02:28:05;;;;;;;5.63;0.75;;;512.40;1817.60;;;;;;5093271;28;20057;-73
2021/08/25 02:30:30;;;;;;;2.17;0.60;;;512.30;1792.00;;;;;;5093526;28;20020;-73
2021/08/25 02:32:56;;;;;;;0.85;0.50;;;512.30;1817.60;;;;;;5093165;28;20032;-73
2021/08/25 02:35:22;;;;;;;1.75;0.50;;;512.30;1766.40;;;;;;5093214;28;20023;-72
2021/08/25 02:37:49;;;;;;;0.65;0.65;;;512.20;1766.40;;;;;;5093231;28;20051;-73
2021/08/25 02:40:15;;;;;;;1.42;0.30;;;512.30;1792.00;;;;;;5093203;28;20020;-73
2021/08/25 02:42:41;;;;;;;0.57;0.40;;;512.30;1792.00;;;;;;5091858;28;20028;-73
2021/08/25 02:45:08;;;;;;;0.32;0.30;;;512.20;1792.00;;;;;;5095171;28;20024;-73
2021/08/25 02:47:34;;;;;;;2.47;0.50;;;512.10;1792.00;;;;;;5097288;28;20023;-73
2021/08/25 02:50:00;;;;;;;3.17;0.50;;;512.00;1792.00;;;;;;5096975;28;20020;-72
2021/08/25 02:52:26;;;;;;;2.35;0.50;;;512.00;1792.00;;;;;;5096845;28;20503;-73
2021/08/25 02:54:52;;;;;;;0.63;0.30;;;512.00;1792.00;;;;;;5097139;28;20028;-73
2021/08/25 02:57:18;;;;;;;2.08;0.47;;;487.30;1792.00;;;;;;5095528;28;20127;-73
2021/08/25 02:59:44;;;;;;;0.85;0.50;;;487.30;1792.00;;;;;;5096961;28;20066;-74
2021/08/25 03:02:10;;;;;;;5.20;0.50;;;487.30;1817.60;;;;;;5095478;28;20028;-74
2021/08/25 03:04:36;;;;;;;1.48;0.50;;;512.00;1817.60;;;;;;5097027;28;20044;-73
2021/08/25 03:07:02;;;;;;;3.70;0.98;;;487.30;1843.20;;;;;;5096685;28;20055;-74
2021/08/25 03:09:28;;;;;;;1.35;0.60;;;487.20;1843.20;;;;;;5096628;28;20044;-73
2021/08/25 03:11:54;;;;;;;1.13;0.50;;;487.20;1868.80;;;;;;5096509;28;20036;-73
2021/08/25 03:14:20;;;;;;;0.95;0.50;;;487.30;1843.20;;;;;;5096298;28;20048;-73
2021/08/25 03:16:46;;;;;;;1.35;0.57;;;487.20;1868.80;;;;;;5096588;28;20529;-73
2021/08/25 03:19:11;;;;;;;1.58;0.68;;;487.20;1868.80;;;;;;5095140;28;20023;-74
2021/08/25 03:21:41;;;;;;;1.88;0.60;;;487.10;1868.80;;;;;;5096435;28;20040;-73
2021/08/25 03:24:10;;;;;;;3.65;0.63;;;487.10;1868.80;;;;;;5095032;28;20401;-73
2021/08/25 03:26:37;;;;;;;2.55;0.70;;;487.10;1894.40;;;;;;5096347;28;20020;-73
2021/08/25 03:29:03;;;;;;;1.10;0.82;;;487.10;1894.40;;;;;;5096271;28;20016;-74
2021/08/25 03:31:29;;;;;;;2.00;0.68;;;487.00;1894.40;;;;;;5096117;28;20063;-73
2021/08/25 03:33:55;;;;;;;1.15;0.65;;;487.00;1894.40;;;;;;5096144;28;20020;-73
2021/08/25 03:36:21;;;;;;;5.43;0.98;;;487.00;1894.40;;;;;;5096081;28;20081;-73
2021/08/25 03:38:47;;;;;;;0.98;0.50;;;487.00;1920.00;;;;;;5096040;28;20024;-73
2021/08/25 03:41:13;;;;;;;1.65;0.65;;;487.00;1920.00;;;;;;5095969;28;20020;-73
2021/08/25 03:43:39;;;;;;;1.67;0.68;;;486.90;1920.00;;;;;;5095966;28;20108;-73
2021/08/25 03:46:05;;;;;;;1.95;0.70;;;486.90;1920.00;;;;;;5095904;28;20028;-74
2021/08/25 03:48:31;;;;;;;4.35;0.80;;;486.80;1920.00;;;;;;5095905;28;20020;-73
2021/08/25 03:50:56;;;;;;;1.35;0.80;;;486.80;1920.00;;;;;;5095779;28;20020;-72
2021/08/25 03:53:22;;;;;;;3.15;0.63;;;486.80;1920.00;;;;;;5095753;28;20067;-73
2021/08/25 03:55:48;;;;;;;1.92;0.55;;;486.80;1920.00;;;;;;5095663;28;20154;-73
2021/08/25 03:58:14;;;;;;;2.22;1.23;;;486.80;1920.00;;;;;;5095740;28;20036;-73
2021/08/25 04:00:40;;;;;;;3.33;1.20;;;486.80;1945.60;;;;;;5095636;28;20020;-72
2021/08/25 04:03:06;;;;;;;2.08;1.08;;;486.80;1945.60;;;;;;5095605;28;20016;-73
2021/08/25 04:05:32;;;;;;;1.42;0.80;;;486.80;1945.60;;;;;;5094263;28;20039;-72
2021/08/25 04:07:58;;;;;;;1.83;0.70;;;486.80;1945.60;;;;;;5094270;28;20020;-73
2021/08/25 04:10:23;;;;;;;1.48;0.77;;;486.80;1920.00;;;;;;5095467;28;20096;-73
2021/08/25 04:12:49;;;;;;;4.43;0.60;;;486.70;1945.60;;;;;;5095231;28;20036;-72
2021/08/25 04:15:15;;;;;;;1.27;0.75;;;486.70;1945.60;;;;;;5095251;28;20044;-73
2021/08/25 04:17:41;;;;;;;2.72;0.75;;;486.70;1945.60;;;;;;5095312;28;20027;-73
2021/08/25 04:20:08;;;;;;;1.90;1.00;;;486.70;1945.60;;;;;;5095226;28;20024;-72
2021/08/25 04:22:34;;;;;;;1.10;0.65;;;486.70;1945.60;;;;;;5095216;28;20481;-72
2021/08/25 04:24:59;;;;;;;0.68;0.60;;;486.70;1945.60;;;;;;5093881;28;20070;-73
2021/08/25 04:27:25;;;;;;;6.07;0.90;;;486.70;1945.60;;;;;;5093812;28;20681;-73
2021/08/25 04:29:51;;;;;;;2.47;0.82;;;486.70;1945.60;;;;;;5095338;28;20019;-73
2021/08/25 04:32:17;;;;;;;2.28;0.73;;;486.60;1945.60;;;;;;5094782;28;20047;-72
2021/08/25 04:34:43;;;;;;;1.92;0.77;;;486.60;1945.60;;;;;;5095122;28;20443;-73
2021/08/25 04:37:09;;;;;;;2.03;0.90;;;486.60;1945.60;;;;;;5094824;28;20031;-73
2021/08/25 04:39:34;;;;;;;1.90;0.60;;;486.60;1945.60;;;;;;5093506;28;20495;-72
2021/08/25 04:42:00;;;;;;;1.40;0.80;;;486.60;1920.00;;;;;;5095053;28;20024;-73
2021/08/25 04:44:26;;;;;;;2.85;0.80;;;486.50;1945.60;;;;;;5094820;28;20020;-73
2021/08/25 04:46:52;;;;;;;2.42;0.70;;;486.50;1945.60;;;;;;5094750;28;20020;-72
2021/08/25 04:49:18;;;;;;;4.18;1.42;;;486.40;1971.20;;;;;;5094709;28;20104;-73
2021/08/25 04:51:44;;;;;;;2.17;1.15;;;486.50;1971.20;;;;;;5094603;28;20058;-73
2021/08/25 04:54:10;;;;;;;1.08;0.85;;;486.50;1971.20;;;;;;5094617;28;20496;-72
2021/08/25 04:56:36;;;;;;;1.77;0.80;;;486.50;1971.20;;;;;;5094575;28;20024;-71
2021/08/25 04:59:02;;;;;;;3.80;1.25;;;486.50;1971.20;;;;;;5094507;28;20020;-72
2021/08/25 05:01:27;;;;;;;2.75;0.93;;;486.40;1945.60;;;;;;5094484;28;20031;-73
2021/08/25 05:03:53;;;;;;;4.35;1.00;;;486.40;1971.20;;;;;;5094406;28;20039;-73
2021/08/25 05:06:19;;;;;;;1.75;0.75;;;486.40;1971.20;;;;;;5094396;28;20077;-72
2021/08/25 05:08:45;;;;;;;1.48;0.70;;;486.50;1971.20;;;;;;5094019;28;20051;-73
2021/08/25 05:11:11;;;;;;;0.90;0.68;;;486.50;1945.60;;;;;;5094267;28;20059;-73
2021/08/25 05:13:38;;;;;;;1.45;0.55;;;486.40;1971.20;;;;;;5092957;28;20446;-72
2021/08/25 05:16:13;;;;;;;1.42;0.90;;;486.50;1945.60;;;;;;5092764;28;20127;-73
2021/08/25 05:18:41;;;;;;;1.05;0.80;;;486.40;1945.60;;;;;;5094123;28;20103;-73
2021/08/25 05:21:07;;;;;;;1.98;0.77;;;486.40;1971.20;;;;;;5094109;28;20023;-73
2021/08/25 05:23:34;;;;;;;2.97;0.95;;;486.40;1971.20;;;;;;5094132;28;20368;-74
2021/08/25 05:26:00;;;;;;;1.05;0.60;;;486.40;1971.20;;;;;;5094098;28;20028;-74
2021/08/25 05:28:26;;;;;;;1.63;0.57;;;461.70;1971.20;;;;;;5094039;28;20537;-75
2021/08/25 05:30:52;;;;;;;1.48;0.60;;;461.60;1971.20;;;;;;5093940;28;20028;-74
2021/08/25 05:33:18;;;;;;;2.85;0.80;;;461.60;1996.80;;;;;;5092701;28;20173;-75
2021/08/25 05:35:44;;;;;;;1.02;0.60;;;461.60;1971.20;;;;;;5093945;28;20385;-74
2021/08/25 05:38:10;;;;;;;2.13;0.80;;;461.60;1971.20;;;;;;5093897;28;20537;-76
2021/08/25 05:40:35;;;;;;;2.70;0.90;;;461.70;1971.20;;;;;;5093804;28;20025;-74
2021/08/25 05:43:01;;;;;;;6.03;0.90;;;461.60;1971.20;;;;;;5093815;28;20082;-74
2021/08/25 05:45:27;;;;;;;3.55;0.70;;;461.70;1971.20;;;;;;5092465;28;20032;-72
2021/08/25 05:47:56;;;;;;;1.42;0.90;;;461.60;1971.20;;;;;;5094056;28;20035;-72
2021/08/25 05:50:24;;;;;;;2.88;0.75;;;461.60;1971.20;;;;;;5093863;28;20024;-72
2021/08/25 05:52:51;;;;;;;1.20;0.70;;;461.60;1971.20;;;;;;5093556;28;20032;-72
2021/08/25 05:55:16;;;;;;;1.98;0.88;;;486.40;1971.20;;;;;;5094194;28;20086;-72
2021/08/25 05:57:46;;;;;;;2.97;0.75;;;461.70;1971.20;;;;;;5094217;28;20111;-72
2021/08/25 06:00:16;;;;;;;1.90;0.93;;;461.70;1971.20;;;;;;5092339;28;20383;-72
2021/08/25 06:02:43;;;;;;;1.75;0.98;;;486.40;1945.60;;;;;;5093586;28;20035;-74
2021/08/25 06:05:11;;;;;;;2.08;0.60;;;486.40;1971.20;;;;;;5093530;28;20012;-74
2021/08/25 06:07:36;;;;;;;2.55;0.80;;;461.60;1971.20;;;;;;5093485;28;20030;-74
2021/08/25 06:10:03;;;;;;;1.50;1.00;;;461.60;1971.20;;;;;;5093765;28;20512;-74
2021/08/25 06:12:29;;;;;;;3.05;1.00;;;461.50;1971.20;;;;;;5093343;28;20404;-75
2021/08/25 06:14:54;;;;;;;1.80;1.27;;;461.50;1996.80;;;;;;5093153;28;20036;-75
2021/08/25 06:17:20;;;;;;;1.52;0.90;;;461.50;1971.20;;;;;;5093421;28;20035;-73
2021/08/25 06:19:46;;;;;;;1.45;0.80;;;461.60;1971.20;;;;;;5095124;28;20016;-74
2021/08/25 06:22:12;;;;;;;1.88;1.10;;;461.60;1971.20;;;;;;5096114;28;20024;-74
2021/08/25 06:24:38;;;;;;;3.22;0.90;;;461.60;1971.20;;;;;;5097761;28;20023;-74
2021/08/25 06:27:04;;;;;;;1.77;1.13;;;461.60;1971.20;;;;;;5097502;28;20411;-74
2021/08/25 06:29:30;;;;;;;2.03;1.25;;;461.60;1971.20;;;;;;5097395;28;20024;-72
2021/08/25 06:31:56;;;;;;;1.42;1.05;;;461.60;1971.20;;;;;;5097507;28;20028;-72
2021/08/25 06:34:22;;;;;;;1.70;1.17;;;461.70;1971.20;;;;;;5095982;28;20111;-74
2021/08/25 06:36:48;;;;;;;3.47;1.05;;;461.70;1971.20;;;;;;5097218;28;20056;-74
2021/08/25 06:39:14;;;;;;;1.90;1.30;;;461.60;1971.20;;;;;;5095714;28;20028;-74
2021/08/25 06:41:40;;;;;;;1.95;1.30;;;461.60;1945.60;;;;;;5095798;28;20024;-77
2021/08/25 06:44:06;;;;;;;8.55;1.70;;;461.60;1971.20;;;;;;5095449;28;20101;-75
2021/08/25 06:46:32;;;;;;;3.00;1.48;;;461.60;1971.20;;;;;;5096374;28;20077;-74
2021/08/25 06:48:58;;;;;;;2.15;1.30;;;461.60;1971.20;;;;;;5096949;28;20016;-74
2021/08/25 06:51:24;;;;;;;2.70;1.02;;;461.70;1971.20;;;;;;5096411;28;20030;-73
2021/08/25 06:53:50;;;;;;;1.80;1.15;;;486.40;1945.60;;;;;;5096145;28;20020;-73
2021/08/25 06:56:16;;;;;;;2.90;1.50;;;486.40;1945.60;;;;;;5095580;28;20081;-74
2021/08/25 06:58:41;;;;;;;2.25;1.30;;;486.40;1945.60;;;;;;5097111;28;20032;-74
2021/08/25 07:01:07;;;;;;;3.45;1.50;;;486.40;1945.60;;;;;;5097045;28;20024;-74
2021/08/25 07:03:35;;;;;;;4.03;1.40;;;461.70;1945.60;;;;;;5096752;28;20074;-76
2021/08/25 07:06:01;;;;;;;4.68;2.00;;;461.70;1971.20;;;;;;5096707;28;20048;-73
2021/08/25 07:08:27;;;;;;;6.68;1.55;;;486.40;1945.60;;;;;;5096668;28;20027;-74
2021/08/25 07:10:53;;;;;;;5.00;1.70;;;486.40;1945.60;;;;;;5096623;28;20024;-75
2021/08/25 07:13:19;;;;;;;4.57;1.88;;;486.40;1945.60;;;;;;5096515;28;20036;-75
2021/08/25 07:15:45;;;;;;;4.13;2.20;;;461.70;1971.20;;;;;;5095383;28;20043;-74
2021/08/25 07:18:11;;;;;;;4.43;2.00;;;461.60;1945.60;;;;;;5093291;28;20085;-74
2021/08/25 07:20:37;;;;;;;4.40;1.77;;;486.40;1945.60;;;;;;5095053;28;20098;-75
2021/08/25 07:23:03;;;;;;;2.42;1.58;;;486.40;1945.60;;;;;;5094958;28;20473;-74
2021/08/25 07:25:29;;;;;;;3.92;1.50;;;486.40;1945.60;;;;;;5095128;28;20027;-74
2021/08/25 07:27:55;;;;;;;5.13;1.92;;;486.40;1945.60;;;;;;5095003;28;20048;-74
2021/08/25 07:30:21;;;;;;;2.83;1.80;;;461.60;1971.20;;;;;;5094626;28;20028;-74
2021/08/25 07:32:47;;;;;;;6.95;1.92;;;486.40;1945.60;;;;;;5094954;28;20032;-75
2021/08/25 07:35:13;;;;;;;6.00;1.98;;;486.40;1945.60;;;;;;5094986;28;20027;-75
2021/08/25 07:37:39;;;;;;;8.52;2.50;;;486.40;1945.60;;;;;;5094901;28;20020;-73
2021/08/25 07:40:06;;;;;;;4.38;2.10;;;486.40;1945.60;;;;;;5094910;28;20020;-74
2021/08/25 07:42:32;;;;;;;4.72;2.45;;;486.40;1945.60;;;;;;5094816;28;20052;-74
2021/08/25 07:44:58;;;;;;;4.88;2.33;;;486.40;1945.60;;;;;;5095116;28;20036;-73
2021/08/25 07:47:24;;;;;;;3.55;2.08;;;461.70;1971.20;;;;;;5093504;28;20028;-74
2021/08/25 07:49:50;;;;;;;7.65;2.33;;;461.70;1945.60;;;;;;5094982;28;20027;-74
2021/08/25 07:52:16;;;;;;;3.60;2.35;;;461.70;1945.60;;;;;;5094644;28;20036;-73
2021/08/25 07:54:42;;;;;;;5.10;2.00;;;461.70;1945.60;;;;;;5094716;28;20024;-74
2021/08/25 07:57:08;;;;;;;7.07;2.40;;;461.70;1945.60;;;;;;5094899;28;20173;-73
2021/08/25 07:59:34;;;;;;;4.88;2.25;;;486.40;1945.60;;;;;;5094679;28;20421;-74
2021/08/25 08:02:00;;;;;;;4.75;2.53;;;486.40;1945.60;;;;;;5094574;28;20020;-74
2021/08/25 08:04:26;;;;;;;15.07;8.30;;;486.40;1945.60;;;;;;5094505;28;20411;-74
2021/08/25 08:06:53;;;;;;;13.02;11.63;;;486.40;1920.00;;;;;;5094825;28;20476;-74
2021/08/25 08:09:19;;;;;;;12.38;9.52;;;486.40;1945.60;;;;;;5094529;28;20026;-74
2021/08/25 08:11:46;;;;;;;8.88;4.95;;;486.40;1920.00;;;;;;5094490;28;20112;-74
2021/08/25 08:14:13;;;;;;;8.35;2.92;;;486.40;1945.60;;;;;;5047500;28;1292394;-74
2021/08/25 08:16:43;;;;;;;4.85;2.65;;;486.40;1945.60;;;;;;5095445;28;20023;-74
2021/08/25 08:19:23;;;;;;;6.47;2.67;;;486.40;1920.00;;;;;;5094065;28;20073;-74
2021/08/25 08:21:49;;;;;;;5.53;2.53;;;486.50;1920.00;;;;;;5095533;28;20020;-75
2021/08/25 08:24:16;;;;;;;5.43;2.63;;;486.40;1894.40;;;;;;5095205;28;20016;-74
2021/08/25 08:26:43;;;;;;;4.15;2.70;;;486.40;1920.00;;;;;;5095125;28;20523;-72
2021/08/25 08:29:09;;;;;;;5.88;2.70;;;486.40;1920.00;;;;;;5095080;28;20012;-72
2021/08/25 08:31:35;;;;;;;3.88;2.30;;;486.40;1920.00;;;;;;5095250;28;20028;-72
2021/08/25 08:34:01;;;;;;;4.80;2.90;;;486.40;1920.00;;;;;;5095057;28;20069;-74
2021/08/25 08:36:27;;;;;;;6.78;2.88;;;486.50;1894.40;;;;;;5095006;28;20028;-74
2021/08/25 08:38:52;;;;;;;6.70;2.55;;;486.50;1894.40;;;;;;5094949;28;20032;-74
2021/08/25 08:41:18;;;;;;;7.47;2.53;;;486.50;1894.40;;;;;;5094752;28;20094;-74
2021/08/25 08:43:49;;;;;;;4.20;2.65;;;486.50;1894.40;;;;;;5094220;28;20465;-74
2021/08/25 08:46:18;;;;;;;9.90;2.97;;;486.50;1894.40;;;;;;5095343;28;20417;-74
2021/08/25 08:48:45;;;;;;;7.22;3.20;;;486.60;1894.40;;;;;;5094755;28;20031;-74
2021/08/25 08:51:14;;;;;;;5.22;2.97;;;486.60;1894.40;;;;;;5094659;28;20081;-74
2021/08/25 08:53:41;;;;;;;5.72;2.63;;;486.60;1894.40;;;;;;5095258;28;20028;-74
2021/08/25 08:56:07;;;;;;;5.65;2.60;;;486.60;1894.40;;;;;;5093405;28;20430;-74
2021/08/25 08:58:32;;;;;;;6.00;2.90;;;486.70;1894.40;;;;;;5094905;28;20032;-74
2021/08/25 09:00:59;;;;;;;5.82;2.78;;;486.80;1894.40;;;;;;5094600;28;20140;-74
2021/08/25 09:03:27;;;;;;;3.55;3.00;;;486.80;1894.40;;;;;;5093515;28;20134;-74
2021/08/25 09:05:58;;;;;;;4.50;2.72;;;486.80;1894.40;;;;;;5093255;28;20020;-75
2021/08/25 09:08:29;;;;;;;6.00;2.70;;;486.80;1868.80;;;;;;5093688;28;20031;-71
2021/08/25 09:11:04;;;;;;;5.13;2.55;;;486.90;1868.80;;;;;;5093535;28;20024;-74
2021/08/25 09:13:48;;;;;;;5.68;2.88;;;487.00;1868.80;;;;;;5093839;28;20123;-72
2021/08/25 09:16:31;;;;;;;5.65;2.88;;;486.90;1868.80;;;;;;5094092;28;20097;-72
2021/08/25 09:19:01;;;;;;;3.83;2.58;;;487.00;1868.80;;;;;;5094114;28;20047;-72
2021/08/25 09:21:32;;;;;;;4.80;2.80;;;487.00;1868.80;;;;;;5092686;28;20503;-73
2021/08/25 09:23:58;;;;;;;5.70;2.72;;;487.10;1843.20;;;;;;5093055;28;20016;-73
2021/08/25 09:26:24;;;;;;;6.82;2.72;;;487.00;1843.20;;;;;;5093533;28;20096;-74
2021/08/25 09:28:51;;;;;;;6.05;2.70;;;486.90;1843.20;;;;;;5093253;28;20020;-74
2021/08/25 09:31:17;;;;;;;14.07;3.25;;;487.00;1843.20;;;;;;5092958;28;20032;-74
2021/08/25 09:33:46;;;;;;;5.40;3.05;;;487.00;1843.20;;;;;;5093154;28;20024;-74
2021/08/25 09:36:14;;;;;;;8.85;2.88;;;487.10;1843.20;;;;;;5093221;28;20023;-73
2021/08/25 09:38:50;;;;;;;5.00;2.97;;;487.00;1843.20;;;;;;5093265;28;20491;-78
2021/08/25 09:41:16;;;;;;;4.35;2.50;;;487.10;1843.20;;;;;;5091739;28;20017;-72
2021/08/25 09:43:45;;;;;;;3.58;2.85;;;487.10;1817.60;;;;;;5093086;28;20031;-78
2021/08/25 09:46:14;;;;;;;7.53;2.78;;;487.20;1817.60;;;;;;5091741;28;20407;-72
2021/08/25 09:48:49;;;;;;;7.20;2.83;;;487.20;1817.60;;;;;;5093418;28;20419;-73
2021/08/25 09:51:17;;;;;;;7.15;3.00;;;487.20;1817.60;;;;;;5091600;28;20027;-73
2021/08/25 09:53:46;;;;;;;7.13;3.10;;;512.00;1817.60;;;;;;5092833;28;20043;-73
2021/08/25 09:56:39;;;;;;;5.85;3.28;;;512.10;1817.60;;;;;;5092979;28;20016;-73
2021/08/25 09:59:07;;;;;;;7.25;3.28;;;512.20;1792.00;;;;;;5090542;28;20024;-73
2021/08/25 10:01:34;;;;;;;4.20;3.20;;;512.20;1792.00;;;;;;5092897;28;20108;-75
2021/08/25 10:04:07;;;;;;;5.93;2.83;;;512.20;1792.00;;;;;;5093522;28;20042;-74
2021/08/25 10:06:37;;;;;;;16.05;3.72;;;512.30;1817.60;;;;;;5093288;28;20024;-74
2021/08/25 10:09:11;;;;;;;3.70;2.70;;;512.30;1766.40;;;;;;5092770;28;20027;-73
2021/08/25 10:11:53;;;;;;;5.00;3.03;;;512.30;1766.40;;;;;;5092970;28;20039;-74
2021/08/25 10:14:18;;;;;;;9.20;3.40;;;512.30;1766.40;;;;;;5090437;28;20097;-74
2021/08/25 10:16:52;;;;;;;7.25;3.20;;;512.40;1766.40;;;;;;5092750;28;20016;-74
2021/08/25 10:19:36;;;;;;;7.75;4.05;;;512.40;1740.80;;;;;;5090506;28;20094;-73
2021/08/25 10:22:23;;;;;;;7.93;4.68;;;512.40;1766.40;;;;;;5093035;28;20050;-75
2021/08/25 10:24:53;;;;;;;12.18;4.65;;;512.50;1740.80;;;;;;5093246;28;20477;-74
2021/08/25 10:27:24;;;;;;;9.25;5.20;;;512.60;1766.40;;;;;;5093291;28;20511;-75
2021/08/25 10:30:02;;;;;;;4.53;3.25;;;512.70;1740.80;;;;;;5093334;28;20528;-74
2021/08/25 10:32:33;;;;;;;5.28;3.22;;;512.70;1740.80;;;;;;5091808;28;20575;-75
2021/08/25 10:35:14;;;;;;;15.32;4.90;;;512.70;1740.80;;;;;;5093272;28;20020;-73
2021/08/25 10:37:40;;;;;;;11.18;3.70;;;512.70;1740.80;;;;;;5093279;28;20094;-74
2021/08/25 10:40:09;;;;;;;4.22;3.00;;;512.70;1715.20;;;;;;5093256;28;20028;-74
2021/08/25 10:42:45;;;;;;;25.42;4.85;;;512.70;1740.80;;;;;;5094026;28;20031;-73
2021/08/25 10:45:11;;;;;;;9.63;4.20;;;512.80;1766.40;;;;;;5093142;28;20013;-74
2021/08/25 10:48:00;;;;;;;8.43;3.47;;;512.80;1740.80;;;;;;5093140;28;20078;-74
2021/08/25 10:50:48;;;;;;;9.48;4.43;;;512.90;1715.20;;;;;;5093129;28;20024;-72
2021/08/25 10:53:38;;;;;;;13.85;5.57;;;512.90;1689.60;;;;;;5091775;28;20388;-73
2021/08/25 10:56:31;;;;;;;17.40;6.45;;;537.60;1715.20;;;;;;5085143;28;20043;-73
2021/08/25 10:59:00;;;;;;;;;;;537.60;1715.20;;;;;;5093530;28;20105;-72
2021/08/25 11:01:31;;;;;;;5.38;3.33;;;537.70;1689.60;;;;;;5093022;28;19904;-72
2021/08/25 11:04:03;;;;;;;5.88;3.03;;;537.60;1689.60;;;;;;5093286;28;20023;-72
2021/08/25 11:06:37;;;;;;;7.47;3.13;;;537.60;1689.60;;;;;;5095394;28;20082;-73
2021/08/25 11:09:25;;;;;;;7.05;3.20;;;537.70;1689.60;;;;;;5096711;28;20055;-72
2021/08/25 11:12:18;;;;;;;7.07;2.90;;;537.70;1689.60;;;;;;5096859;28;20032;-73
2021/08/25 11:14:49;;;;;;;7.50;3.90;;;537.70;1715.20;;;;;;5087066;28;20064;-73
2021/08/25 11:17:20;;;;;;;9.90;4.90;;;537.70;1689.60;;;;;;5096537;28;20020;-73
2021/08/25 11:19:51;;;;;;;6.55;3.50;;;537.70;1689.60;;;;;;5096470;28;20081;-72
2021/08/25 11:22:24;;;;;;;8.30;3.25;;;537.80;1689.60;;;;;;5096441;28;20031;-73
2021/08/25 11:24:56;;;;;;;5.78;3.55;;;537.70;1664.00;;;;;;5096379;28;20058;-73
2021/08/25 11:27:35;;;;;;;6.15;3.45;;;537.70;1689.60;;;;;;5096629;28;20508;-72
2021/08/25 11:30:20;;;;;;;7.15;3.75;;;537.70;1664.00;;;;;;5094990;28;20388;-74
2021/08/25 11:32:59;;;;;;;5.82;3.40;;;537.70;1689.60;;;;;;5096190;28;20035;-74
2021/08/25 11:35:35;;;;;;;5.95;3.95;;;537.70;1689.60;;;;;;5094937;28;20024;-74
2021/08/25 11:38:09;;;;;;;6.18;3.20;;;537.80;1689.60;;;;;;5096158;28;20020;-73
2021/08/25 11:40:40;;;;;;;8.80;3.55;;;538.00;1689.60;;;;;;5096141;28;20024;-74
2021/08/25 11:43:07;;;;;;;13.07;7.50;;;538.10;1689.60;;;;;;5096376;28;20024;-73
2021/08/25 11:45:34;;;;;;;7.72;5.10;;;538.10;1689.60;;;;;;5096011;28;20077;-73
2021/08/25 11:48:03;;;;;;;10.40;3.97;;;538.10;1664.00;;;;;;5094635;28;20032;-73
2021/08/25 11:50:31;;;;;;;8.40;3.45;;;538.10;1664.00;;;;;;5095868;28;20018;-73
2021/08/25 11:52:59;;;;;;;6.03;2.80;;;538.10;1664.00;;;;;;5095785;28;20032;-74
2021/08/25 11:55:25;;;;;;;21.13;3.80;;;538.10;1638.40;;;;;;5095824;28;20423;-74
2021/08/25 11:57:54;;;;;;;11.18;4.60;;;538.10;1664.00;;;;;;5095744;28;20376;-73
2021/08/25 12:00:36;;;;;;;8.52;4.13;;;538.10;1664.00;;;;;;5095594;28;20023;-73
2021/08/25 12:03:03;;;;;;;9.80;3.67;;;538.20;1638.40;;;;;;5095717;28;20020;-73
2021/08/25 12:05:35;;;;;;;6.45;3.17;;;538.20;1638.40;;;;;;5095611;28;20027;-73
2021/08/25 12:08:14;;;;;;;4.72;2.90;;;538.20;1638.40;;;;;;5094911;28;20020;-73
2021/08/25 12:10:48;;;;;;;13.43;4.05;;;538.20;1638.40;;;;;;5095419;28;20024;-75
2021/08/25 12:13:37;;;;;;;6.90;3.17;;;538.20;1664.00;;;;;;5095489;28;20028;-73
2021/08/25 12:16:06;;;;;;;5.80;3.70;;;538.30;1664.00;;;;;;5093833;28;20052;-73
2021/08/25 12:18:47;;;;;;;6.60;3.15;;;538.30;1638.40;;;;;;5094337;28;20460;-73
2021/08/25 12:21:13;;;;;;;13.52;3.53;;;538.30;1638.40;;;;;;5095470;28;20081;-73